Time;durP1;ratioP1;P1;durP2;ratioP2;P2;SDS_P1;SDS_P2;PMS_P1;PMS_P2;Temp;Humidity;BMP_temperature;BMP_pressure;BME280_temperature;BME280_humidity;BME280_pressure;Samples;Min_cycle;Max_cycle;Signal;HPM_P1;HPM_P2
2023/05/20 00:00:59;;;;;;;;;;;;;;;12.19;64.25;102419.81;5021341;28;19925;-52
2023/05/20 00:03:24;;;;;;;;;;;;;;;12.16;64.42;102417.09;5017597;28;20014;-50
2023/05/20 00:05:49;;;;;;;;;;;;;;;12.12;64.65;102415.19;5024328;28;19928;-49
2023/05/20 00:08:17;;;;;;;;;;;;;;;12.10;63.67;102419.41;5019024;28;19932;-51
2023/05/20 00:10:42;;;;;;;;;;;;;;;12.08;65.41;102416.75;5022783;28;19924;-50
2023/05/20 00:13:07;;;;;;;;;;;;;;;12.04;65.04;102416.53;5024127;28;19925;-51
2023/05/20 00:15:34;;;;;;;;;;;;;;;11.99;67.30;102418.00;5019141;28;19925;-52
2023/05/20 00:18:00;;;;;;;;;;;;;;;11.96;66.34;102415.31;5017881;28;19929;-49
2023/05/20 00:20:25;;;;;;;;;;;;;;;11.89;65.18;102415.81;5024696;28;19921;-48
2023/05/20 00:22:50;;;;;;;;;;;;;;;11.86;65.62;102418.25;5019810;28;19928;-50
2023/05/20 00:25:15;;;;;;;;;;;;;;;11.84;67.32;102418.19;5020430;28;19926;-50
2023/05/20 00:27:41;;;;;;;;;;;;;;;11.78;65.51;102418.75;5016855;28;20376;-48
2023/05/20 00:30:07;;;;;;;;;;;;;;;11.77;67.15;102423.84;5015428;28;19921;-52
2023/05/20 00:32:32;;;;;;;;;;;;;;;11.71;66.97;102431.22;5022460;28;20384;-51
2023/05/20 00:34:58;;;;;;;;;;;;;;;11.68;67.70;102423.38;5020756;28;19983;-51
2023/05/20 00:37:23;;;;;;;;;;;;;;;11.64;66.84;102421.44;5020525;28;19921;-52
2023/05/20 00:39:49;;;;;;;;;;;;;;;11.62;68.74;102423.97;5020325;28;19963;-52
2023/05/20 00:42:24;;;;;;;;;;;;;;;11.60;69.85;102416.97;5016483;28;20024;-52
2023/05/20 00:44:50;;;;;;;;;;;;;;;11.53;70.14;102406.38;5024353;28;20359;-53
2023/05/20 00:47:16;;;;;;;;;;;;;;;11.50;69.23;102408.78;5020296;28;20449;-51
2023/05/20 00:49:42;;;;;;;;;;;;;;;11.44;70.03;102416.22;5020115;28;20395;-53
2023/05/20 00:52:07;;;;;;;;;;;;;;;11.40;71.28;102409.13;5025747;28;20535;-51
2023/05/20 00:54:33;;;;;;;;;;;;;;;11.36;73.07;102411.50;5023379;28;19940;-49
2023/05/20 00:56:58;;;;;;;;;;;;;;;11.30;70.02;102412.09;5022113;28;19925;-50
2023/05/20 00:59:24;;;;;;;;;;;;;;;11.30;70.79;102406.06;5019105;28;20035;-52
2023/05/20 01:01:50;;;;;;;;;;;;;;;11.24;71.14;102404.94;5022901;28;19936;-52
2023/05/20 01:04:15;;;;;;;;;;;;;;;11.22;70.22;102408.22;5022524;28;19925;-50
2023/05/20 01:06:40;;;;;;;;;;;;;;;11.18;72.40;102404.63;5023875;28;19925;-48
2023/05/20 01:09:06;;;;;;;;;;;;;;;11.16;71.53;102403.69;5023407;28;19917;-51
2023/05/20 01:11:34;;;;;;;;;;;;;;;11.14;71.17;102402.69;5017554;28;19987;-50
2023/05/20 01:14:05;;;;;;;;;;;;;;;11.11;72.11;102407.72;5025109;28;20283;-51
2023/05/20 01:16:32;;;;;;;;;;;;;;;11.09;70.74;102411.00;5025375;28;19917;-50
2023/05/20 01:18:58;;;;;;;;;;;;;;;11.06;72.52;102404.00;5020790;28;20406;-51
2023/05/20 01:21:26;;;;;;;;;;;;;;;11.02;74.29;102404.66;5020052;28;19921;-52
2023/05/20 01:23:51;;;;;;;;;;;;;;;11.00;73.34;102403.69;5021420;28;19991;-51
2023/05/20 01:26:17;;;;;;;;;;;;;;;10.97;74.18;102406.09;5024770;28;20040;-50
2023/05/20 01:28:43;;;;;;;;;;;;;;;10.96;74.64;102399.19;5024248;28;20011;-52
2023/05/20 01:31:18;;;;;;;;;;;;;;;10.95;74.77;102402.59;5026373;28;20032;-52
2023/05/20 01:33:43;;;;;;;;;;;;;;;10.90;74.71;102391.16;5022861;28;20392;-49
2023/05/20 01:36:09;;;;;;;;;;;;;;;10.89;72.55;102384.25;5022595;28;19952;-50
2023/05/20 01:38:35;;;;;;;;;;;;;;;10.88;74.80;102390.22;5023301;28;19925;-52
2023/05/20 01:41:03;;;;;;;;;;;;;;;10.86;73.52;102387.56;5021254;28;19944;-48
2023/05/20 01:43:28;;;;;;;;;;;;;;;10.86;73.16;102385.00;5018539;28;19917;-50
2023/05/20 01:45:54;;;;;;;;;;;;;;;10.83;75.41;102384.81;5021345;28;19921;-49
2023/05/20 01:48:19;;;;;;;;;;;;;;;10.80;73.74;102392.41;5023864;28;19929;-51
2023/05/20 01:50:44;;;;;;;;;;;;;;;10.75;73.42;102388.69;5022861;28;19928;-52
2023/05/20 01:53:10;;;;;;;;;;;;;;;10.72;74.28;102384.25;5022969;28;20382;-51
2023/05/20 01:55:35;;;;;;;;;;;;;;;10.70;75.28;102378.16;5025187;28;19931;-51
2023/05/20 01:58:01;;;;;;;;;;;;;;;10.68;74.54;102377.22;5019610;28;20023;-51
2023/05/20 02:00:26;;;;;;;;;;;;;;;10.67;77.81;102377.09;5023244;28;20303;-52
2023/05/20 02:02:51;;;;;;;;;;;;;;;10.64;77.44;102374.41;5021429;28;19924;-48
2023/05/20 02:05:17;;;;;;;;;;;;;;;10.60;76.94;102378.47;5020418;28;19917;-49
2023/05/20 02:07:42;;;;;;;;;;;;;;;10.59;76.46;102376.72;5020366;28;19960;-46
2023/05/20 02:10:07;;;;;;;;;;;;;;;10.55;79.33;102371.31;5021067;28;19922;-47
2023/05/20 02:12:33;;;;;;;;;;;;;;;10.53;76.74;102380.66;5018545;28;19925;-48
2023/05/20 02:14:58;;;;;;;;;;;;;;;10.50;76.82;102375.38;5020775;28;19948;-51
2023/05/20 02:17:23;;;;;;;;;;;;;;;10.46;78.84;102377.78;5022908;28;19925;-49
2023/05/20 02:19:48;;;;;;;;;;;;;;;10.43;78.18;102381.84;5020598;28;20443;-47
2023/05/20 02:22:14;;;;;;;;;;;;;;;10.39;79.92;102375.69;5021972;28;19921;-48
2023/05/20 02:24:39;;;;;;;;;;;;;;;10.34;78.19;102369.41;5017637;28;19917;-48
2023/05/20 02:27:05;;;;;;;;;;;;;;;10.33;78.55;102367.66;5017586;28;19925;-50
2023/05/20 02:29:30;;;;;;;;;;;;;;;10.30;78.05;102364.91;5019981;28;19930;-50
2023/05/20 02:31:56;;;;;;;;;;;;;;;10.30;75.38;102364.91;5021551;28;20288;-47
2023/05/20 02:34:21;;;;;;;;;;;;;;;10.29;77.21;102357.13;5020208;28;19925;-48
2023/05/20 02:36:46;;;;;;;;;;;;;;;10.27;76.67;102361.31;5021958;28;19967;-49
2023/05/20 02:39:11;;;;;;;;;;;;;;;10.27;78.29;102363.88;5018230;28;19936;-48
2023/05/20 02:41:37;;;;;;;;;;;;;;;10.25;77.66;102357.75;5019970;28;19929;-48
2023/05/20 02:44:02;;;;;;;;;;;;;;;10.22;78.62;102363.59;5017494;28;20283;-49
2023/05/20 02:46:27;;;;;;;;;;;;;;;10.21;77.06;102364.41;5022190;28;19928;-49
2023/05/20 02:48:53;;;;;;;;;;;;;;;10.18;79.96;102372.81;5021119;28;20927;-48
2023/05/20 02:51:18;;;;;;;;;;;;;;;10.16;79.86;102366.72;5020441;28;19998;-49
2023/05/20 02:53:43;;;;;;;;;;;;;;;10.14;79.66;102359.72;5021846;28;20064;-47
2023/05/20 02:56:08;;;;;;;;;;;;;;;10.13;80.68;102366.56;5019193;28;19988;-50
2023/05/20 02:58:34;;;;;;;;;;;;;;;10.11;78.51;102362.13;5016045;28;19918;-49
2023/05/20 03:01:00;;;;;;;;;;;;;;;10.11;80.70;102360.44;5018170;28;19921;-48
2023/05/20 03:03:28;;;;;;;;;;;;;;;10.09;79.39;102359.47;5019840;28;19936;-48
2023/05/20 03:05:53;;;;;;;;;;;;;;;10.10;78.41;102361.25;5020451;28;19975;-49
2023/05/20 03:08:20;;;;;;;;;;;;;;;10.13;78.40;102365.66;5020656;28;19996;-47
2023/05/20 03:10:46;;;;;;;;;;;;;;;10.15;80.58;102358.91;5021527;28;19921;-48
2023/05/20 03:13:11;;;;;;;;;;;;;;;10.14;79.33;102358.03;5021407;28;19922;-48
2023/05/20 03:15:37;;;;;;;;;;;;;;;10.14;80.36;102359.72;5022302;28;20399;-51
2023/05/20 03:18:02;;;;;;;;;;;;;;;10.15;79.09;102357.22;5015466;28;19924;-48
2023/05/20 03:20:28;;;;;;;;;;;;;;;10.16;82.76;102355.53;5019839;28;19975;-48
2023/05/20 03:22:54;;;;;;;;;;;;;;;10.16;81.37;102356.44;5019300;28;19928;-48
2023/05/20 03:25:19;;;;;;;;;;;;;;;10.15;81.07;102344.38;5020208;28;19921;-47
2023/05/20 03:27:45;;;;;;;;;;;;;;;10.15;82.12;102359.81;5018342;28;20374;-46
2023/05/20 03:30:11;;;;;;;;;;;;;;;10.14;81.54;102362.31;5022252;28;20634;-47
2023/05/20 03:32:36;;;;;;;;;;;;;;;10.15;79.74;102361.50;5017298;28;20334;-48
2023/05/20 03:35:02;;;;;;;;;;;;;;;10.14;82.27;102363.19;5018393;28;19975;-48
2023/05/20 03:37:27;;;;;;;;;;;;;;;10.14;82.10;102368.31;5019423;28;19927;-49
2023/05/20 03:39:52;;;;;;;;;;;;;;;10.14;80.38;102364.88;5023194;28;19925;-47
2023/05/20 03:42:17;;;;;;;;;;;;;;;10.15;79.42;102364.06;5020813;28;20008;-47
2023/05/20 03:44:43;;;;;;;;;;;;;;;10.13;80.34;102358.84;5018630;28;19972;-51
2023/05/20 03:47:08;;;;;;;;;;;;;;;10.12;82.23;102357.06;5020108;28;20309;-48
2023/05/20 03:49:33;;;;;;;;;;;;;;;10.09;82.45;102356.91;5018995;28;19943;-48
2023/05/20 03:51:58;;;;;;;;;;;;;;;10.08;81.85;102357.72;5015360;28;19926;-50
2023/05/20 03:54:24;;;;;;;;;;;;;;;10.09;82.75;102361.16;5016642;28;19933;-50
2023/05/20 03:56:50;;;;;;;;;;;;;;;10.09;83.19;102354.34;5021454;28;19971;-51
2023/05/20 03:59:16;;;;;;;;;;;;;;;10.09;83.58;102356.91;5018989;28;19961;-49
2023/05/20 04:01:42;;;;;;;;;;;;;;;10.11;84.18;102355.28;5020161;28;19917;-49
2023/05/20 04:04:07;;;;;;;;;;;;;;;10.10;84.26;102360.34;5020349;28;20391;-51
2023/05/20 04:06:32;;;;;;;;;;;;;;;10.10;84.54;102357.78;5020248;28;19921;-51
2023/05/20 04:08:57;;;;;;;;;;;;;;;10.12;85.36;102357.06;5019740;28;19960;-51
2023/05/20 04:11:23;;;;;;;;;;;;;;;10.15;84.55;102353.78;5016388;28;20482;-49
2023/05/20 04:13:48;;;;;;;;;;;;;;;10.18;83.09;102352.25;5019732;28;19992;-51
2023/05/20 04:16:13;;;;;;;;;;;;;;;10.23;83.88;102354.19;5018745;28;19921;-49
2023/05/20 04:18:39;;;;;;;;;;;;;;;10.25;84.67;102350.03;5019762;28;20368;-48
2023/05/20 04:21:05;;;;;;;;;;;;;;;10.26;83.08;102354.41;5018565;28;19921;-50
2023/05/20 04:23:30;;;;;;;;;;;;;;;10.28;85.95;102358.81;5018493;28;19929;-53
2023/05/20 04:26:01;;;;;;;;;;;;;;;10.31;84.70;102352.94;5017702;28;20299;-51
2023/05/20 04:28:26;;;;;;;;;;;;;;;10.34;82.54;102355.69;5018422;28;19925;-50
2023/05/20 04:31:03;;;;;;;;;;;;;;;10.38;84.87;102355.03;5015621;28;19964;-52
2023/05/20 04:33:29;;;;;;;;;;;;;;;10.41;84.97;102357.75;5019069;28;19928;-49
2023/05/20 04:35:57;;;;;;;;;;;;;;;10.38;84.50;102355.94;5017425;28;19929;-48
2023/05/20 04:38:28;;;;;;;;;;;;;;;10.41;81.46;102358.63;5017443;28;20338;-48
2023/05/20 04:40:53;;;;;;;;;;;;;;;10.45;83.43;102358.00;5022709;28;20298;-49
2023/05/20 04:43:19;;;;;;;;;;;;;;;10.50;84.72;102357.38;5019387;28;19928;-50
2023/05/20 04:45:44;;;;;;;;;;;;;;;10.50;83.28;102355.69;5022727;28;20059;-52
2023/05/20 04:48:09;;;;;;;;;;;;;;;10.57;83.30;102362.91;5019994;28;19964;-48
2023/05/20 04:50:36;;;;;;;;;;;;;;;10.64;85.92;102362.41;5023481;28;19978;-51
2023/05/20 04:53:02;;;;;;;;;;;;;;;10.74;84.67;102368.94;5020702;28;19929;-49
2023/05/20 04:55:27;;;;;;;;;;;;;;;10.83;83.17;102366.81;5018479;28;19924;-50
2023/05/20 04:57:52;;;;;;;;;;;;;;;10.95;83.38;102374.28;5019241;28;19929;-50
2023/05/20 05:00:18;;;;;;;;;;;;;;;11.01;82.57;102380.59;5021720;28;20351;-53
2023/05/20 05:02:43;;;;;;;;;;;;;;;11.21;82.07;102370.41;5020797;28;20038;-51
2023/05/20 05:05:08;;;;;;;;;;;;;;;11.67;81.50;102362.34;5020602;28;19971;-48
2023/05/20 05:07:34;;;;;;;;;;;;;;;12.28;80.00;102360.03;5021867;28;19917;-52
2023/05/20 05:09:59;;;;;;;;;;;;;;;12.81;78.38;102349.50;5015996;28;19975;-52
2023/05/20 05:12:25;;;;;;;;;;;;;;;13.05;77.21;102354.81;5017187;28;20019;-52
2023/05/20 05:14:50;;;;;;;;;;;;;;;13.21;77.46;102351.16;5016944;28;20374;-52
2023/05/20 05:17:16;;;;;;;;;;;;;;;13.59;76.52;102347.56;5020720;28;19935;-49
2023/05/20 05:19:41;;;;;;;;;;;;;;;14.01;74.49;102341.38;5021701;28;19955;-51
2023/05/20 05:22:07;;;;;;;;;;;;;;;14.31;73.86;102339.91;5023283;28;19964;-50
2023/05/20 05:24:32;;;;;;;;;;;;;;;14.68;73.03;102341.25;5019303;28;19929;-49
2023/05/20 05:26:57;;;;;;;;;;;;;;;14.97;72.43;102344.84;5022984;28;19928;-48
2023/05/20 05:29:22;;;;;;;;;;;;;;;15.28;72.17;102332.06;5022621;28;20280;-50
2023/05/20 05:31:48;;;;;;;;;;;;;;;15.41;71.27;102333.34;5018095;28;20215;-49
2023/05/20 05:34:13;;;;;;;;;;;;;;;15.39;70.03;102335.00;5025165;28;19917;-48
2023/05/20 05:36:39;;;;;;;;;;;;;;;15.54;70.62;102337.22;5018453;28;19928;-48
2023/05/20 05:39:05;;;;;;;;;;;;;;;15.78;70.90;102338.00;5019858;28;19928;-49
2023/05/20 05:41:30;;;;;;;;;;;;;;;15.96;70.90;102336.78;5021747;28;19921;-52
2023/05/20 05:43:57;;;;;;;;;;;;;;;16.05;68.16;102340.50;5018865;28;19935;-47
2023/05/20 05:46:22;;;;;;;;;;;;;;;16.02;65.68;102336.97;5019668;28;19917;-48
2023/05/20 05:48:49;;;;;;;;;;;;;;;16.05;68.32;102335.31;5023010;28;20020;-48
2023/05/20 05:51:15;;;;;;;;;;;;;;;16.16;68.41;102333.03;5020115;28;19925;-49
2023/05/20 05:53:40;;;;;;;;;;;;;;;16.39;67.94;102336.28;5022513;28;19936;-51
2023/05/20 05:56:05;;;;;;;;;;;;;;;16.31;65.73;102329.97;5024290;28;20395;-48
2023/05/20 05:58:30;;;;;;;;;;;;;;;16.35;67.27;102343.09;5021834;28;19921;-50
2023/05/20 06:00:56;;;;;;;;;;;;;;;16.46;66.04;102338.19;5019147;28;20038;-48
2023/05/20 06:03:21;;;;;;;;;;;;;;;16.55;65.91;102335.84;5021996;28;19932;-48
2023/05/20 06:05:47;;;;;;;;;;;;;;;16.68;64.96;102329.25;5023475;28;19928;-48
2023/05/20 06:08:12;;;;;;;;;;;;;;;16.86;63.05;102341.88;5022229;28;20032;-47
2023/05/20 06:10:37;;;;;;;;;;;;;;;16.78;62.59;102336.47;5018219;28;20006;-47
2023/05/20 06:13:02;;;;;;;;;;;;;;;16.74;63.87;102336.34;5022355;28;19975;-48
2023/05/20 06:15:28;;;;;;;;;;;;;;;16.73;64.18;102329.41;5020064;28;20431;-48
2023/05/20 06:17:53;;;;;;;;;;;;;;;16.87;63.72;102334.13;5019105;28;19925;-50
2023/05/20 06:20:18;;;;;;;;;;;;;;;17.02;62.67;102336.22;5023349;28;20287;-49
2023/05/20 06:22:43;;;;;;;;;;;;;;;17.20;62.93;102338.41;5019177;28;20020;-48
2023/05/20 06:25:09;;;;;;;;;;;;;;;17.45;61.25;102332.06;5021627;28;19930;-48
2023/05/20 06:27:35;;;;;;;;;;;;;;;17.48;60.62;102323.47;5020997;28;19963;-47
2023/05/20 06:30:00;;;;;;;;;;;;;;;17.49;60.96;102318.28;5019762;28;19936;-51
2023/05/20 06:32:25;;;;;;;;;;;;;;;17.45;59.66;102316.47;5018883;28;20449;-48
2023/05/20 06:34:50;;;;;;;;;;;;;;;17.61;61.29;102309.91;5021793;28;19982;-48
2023/05/20 06:37:16;;;;;;;;;;;;;;;17.66;60.31;102316.97;5017391;28;20343;-49
2023/05/20 06:39:41;;;;;;;;;;;;;;;17.77;58.85;102308.50;5021995;28;19947;-48
2023/05/20 06:42:06;;;;;;;;;;;;;;;17.87;57.94;102305.28;5025127;28;20294;-48
2023/05/20 06:44:31;;;;;;;;;;;;;;;17.81;59.62;102306.03;5025766;28;19968;-47
2023/05/20 06:46:56;;;;;;;;;;;;;;;17.83;58.61;102295.63;5021923;28;19979;-48
2023/05/20 06:49:22;;;;;;;;;;;;;;;17.90;58.97;102303.63;5023007;28;19921;-52
2023/05/20 06:51:48;;;;;;;;;;;;;;;17.92;58.53;102303.66;5021980;28;19937;-51
2023/05/20 06:54:13;;;;;;;;;;;;;;;18.15;57.38;102299.78;5023629;28;19956;-52
2023/05/20 06:56:38;;;;;;;;;;;;;;;18.15;58.36;102299.78;5022815;28;19932;-51
2023/05/20 06:59:03;;;;;;;;;;;;;;;18.41;57.47;102299.41;5021617;28;19921;-52
2023/05/20 07:01:29;;;;;;;;;;;;;;;18.52;56.12;102299.59;5021444;28;19944;-54
2023/05/20 07:03:54;;;;;;;;;;;;;;;18.64;54.61;102299.84;5024187;28;19925;-53
2023/05/20 07:06:19;;;;;;;;;;;;;;;18.48;56.91;102291.72;5019333;28;20468;-52
2023/05/20 07:08:44;;;;;;;;;;;;;;;18.61;55.64;102292.81;5019669;28;19944;-51
2023/05/20 07:11:10;;;;;;;;;;;;;;;18.66;55.37;102296.38;5018323;28;19928;-49
2023/05/20 07:13:35;;;;;;;;;;;;;;;18.83;55.57;102280.22;5018209;28;19939;-50
2023/05/20 07:16:00;;;;;;;;;;;;;;;18.79;54.59;102292.28;5020005;28;19931;-52
2023/05/20 07:18:25;;;;;;;;;;;;;;;18.72;54.29;102286.09;5020792;28;19960;-52
2023/05/20 07:20:51;;;;;;;;;;;;;;;18.76;54.41;102287.03;5018319;28;19921;-52
2023/05/20 07:23:17;;;;;;;;;;;;;;;18.78;53.36;102289.66;5019515;28;19965;-52
2023/05/20 07:25:42;;;;;;;;;;;;;;;18.72;54.79;102278.28;5019364;28;19917;-48
2023/05/20 07:28:07;;;;;;;;;;;;;;;18.84;54.16;102280.22;5021814;28;19927;-52
2023/05/20 07:30:32;;;;;;;;;;;;;;;19.07;52.72;102267.56;5020063;28;20416;-50
2023/05/20 07:32:58;;;;;;;;;;;;;;;18.82;51.91;102278.47;5016736;28;20344;-51
2023/05/20 07:35:23;;;;;;;;;;;;;;;18.82;52.55;102270.63;5018386;28;20047;-51
2023/05/20 07:37:48;;;;;;;;;;;;;;;18.63;51.85;102291.13;5017288;28;19968;-51
2023/05/20 07:40:14;;;;;;;;;;;;;;;18.63;52.35;102280.72;5018816;28;19922;-51
2023/05/20 07:42:39;;;;;;;;;;;;;;;18.63;52.06;102277.25;5019669;28;19960;-47
2023/05/20 07:45:05;;;;;;;;;;;;;;;18.52;52.43;102266.63;5019609;28;20307;-50
2023/05/20 07:47:31;;;;;;;;;;;;;;;18.55;52.07;102274.47;5019860;28;19928;-47
2023/05/20 07:49:56;;;;;;;;;;;;;;;18.46;52.30;102270.00;5016307;28;19925;-50
2023/05/20 07:52:21;;;;;;;;;;;;;;;18.58;51.95;102269.34;5016212;28;20363;-49
2023/05/20 07:54:46;;;;;;;;;;;;;;;18.64;51.47;102261.63;5012920;28;19921;-48
2023/05/20 07:57:12;;;;;;;;;;;;;;;18.41;52.30;102265.56;5017168;28;19921;-51
2023/05/20 07:59:37;;;;;;;;;;;;;;;18.50;51.04;102268.31;5018805;28;19924;-51
2023/05/20 08:02:02;;;;;;;;;;;;;;;18.44;51.54;102262.97;5019534;28;19929;-49
2023/05/20 08:04:27;;;;;;;;;;;;;;;18.52;50.40;102270.97;5017343;28;19921;-47
2023/05/20 08:06:53;;;;;;;;;;;;;;;18.50;51.37;102263.09;5021717;28;20431;-49
2023/05/20 08:09:19;;;;;;;;;;;;;;;18.39;51.45;102249.03;5018403;28;19928;-49
2023/05/20 08:11:44;;;;;;;;;;;;;;;18.52;51.10;102250.13;5017246;28;19929;-50
2023/05/20 08:14:10;;;;;;;;;;;;;;;18.58;51.90;102250.22;5020865;28;19964;-52
2023/05/20 08:16:35;;;;;;;;;;;;;;;18.69;51.38;102254.81;5020233;28;20398;-53
2023/05/20 08:19:00;;;;;;;;;;;;;;;18.75;51.24;102243.59;5007394;28;19964;-46
2023/05/20 08:21:26;;;;;;;;;;;;;;;19.02;50.15;102249.22;5021603;28;19929;-48
2023/05/20 08:23:51;;;;;;;;;;;;;;;19.13;50.10;102243.31;5022124;28;20363;-47
2023/05/20 08:26:16;;;;;;;;;;;;;;;19.09;50.33;102244.97;5019902;28;19944;-51
2023/05/20 08:28:42;;;;;;;;;;;;;;;19.33;48.78;102238.38;5019822;28;20033;-48
2023/05/20 08:31:07;;;;;;;;;;;;;;;19.21;47.54;102246.91;5021682;28;19952;-53
2023/05/20 08:33:32;;;;;;;;;;;;;;;19.14;48.74;102225.06;5020042;28;19928;-48
2023/05/20 08:35:58;;;;;;;;;;;;;;;19.19;48.64;102236.47;5022676;28;19929;-46
2023/05/20 08:38:23;;;;;;;;;;;;;;;19.35;48.54;102228.81;5015796;28;19922;-49
2023/05/20 08:40:52;;;;;;;;;;;;;;;19.46;49.55;102230.72;5021305;28;20346;-47
2023/05/20 08:43:18;;;;;;;;;;;;;;;19.52;49.08;102229.94;5021483;28;20508;-46
2023/05/20 08:45:43;;;;;;;;;;;;;;;19.51;47.53;102236.00;5023165;28;19936;-52
2023/05/20 08:48:08;;;;;;;;;;;;;;;19.11;48.55;102232.88;4998823;28;19921;-51
2023/05/20 08:50:34;;;;;;;;;;;;;;;19.05;48.68;102227.56;5023314;28;19952;-52
2023/05/20 08:53:00;;;;;;;;;;;;;;;18.96;49.16;102219.59;5023698;28;20316;-48
2023/05/20 08:55:25;;;;;;;;;;;;;;;18.88;48.94;102226.44;5021988;28;19968;-48
2023/05/20 08:57:53;;;;;;;;;;;;;;;18.81;48.77;102230.69;5023447;28;19983;-47
2023/05/20 09:00:19;;;;;;;;;;;;;;;18.83;48.46;102230.69;5026365;28;19921;-48
2023/05/20 09:02:44;;;;;;;;;;;;;;;18.57;48.87;102227.63;5026990;28;20243;-48
2023/05/20 09:05:10;;;;;;;;;;;;;;;18.56;49.41;102225.84;5025209;28;19974;-48
2023/05/20 09:07:35;;;;;;;;;;;;;;;18.53;49.51;102216.28;5022011;28;19921;-46
2023/05/20 09:10:01;;;;;;;;;;;;;;;18.49;49.36;102212.72;5015892;28;20288;-48
2023/05/20 09:12:26;;;;;;;;;;;;;;;18.41;48.65;102216.94;5025414;28;19933;-47
2023/05/20 09:14:51;;;;;;;;;;;;;;;18.50;49.05;102216.22;5024097;28;19924;-47
2023/05/20 09:17:17;;;;;;;;;;;;;;;18.58;49.31;102208.53;5026243;28;19936;-47
2023/05/20 09:19:42;;;;;;;;;;;;;;;18.70;48.57;102204.44;5022532;28;20055;-47
2023/05/20 09:22:07;;;;;;;;;;;;;;;18.72;48.98;102196.63;5023678;28;19917;-50
2023/05/20 09:24:33;;;;;;;;;;;;;;;18.74;49.19;102203.63;5024278;28;19921;-48
2023/05/20 09:26:58;;;;;;;;;;;;;;;18.93;48.67;102196.97;5024727;28;19943;-51
2023/05/20 09:29:24;;;;;;;;;;;;;;;18.94;49.04;102206.53;5025090;28;19951;-47
2023/05/20 09:31:50;;;;;;;;;;;;;;;18.96;48.21;102201.34;5024750;28;20290;-44
2023/05/20 09:34:16;;;;;;;;;;;;;;;19.00;47.17;102208.38;5025181;28;20308;-46
2023/05/20 09:36:42;;;;;;;;;;;;;;;18.87;48.32;102193.38;5024982;28;19936;-46
2023/05/20 09:39:11;;;;;;;;;;;;;;;18.96;47.77;102198.75;5024043;28;20008;-46
2023/05/20 09:41:44;;;;;;;;;;;;;;;19.03;47.47;102192.75;5021822;28;19917;-48
2023/05/20 09:44:11;;;;;;;;;;;;;;;19.01;47.69;102202.28;5021935;28;19917;-46
2023/05/20 09:46:37;;;;;;;;;;;;;;;18.87;47.90;102189.06;5024324;28;19917;-47
2023/05/20 09:49:02;;;;;;;;;;;;;;;18.92;46.79;102194.31;5022600;28;19925;-47
2023/05/20 09:51:28;;;;;;;;;;;;;;;18.92;47.88;102202.16;5019146;28;20386;-47
2023/05/20 09:53:53;;;;;;;;;;;;;;;18.89;47.91;102195.16;5024798;28;19929;-52
2023/05/20 09:56:21;;;;;;;;;;;;;;;19.16;47.63;102209.44;5024882;28;19921;-48
2023/05/20 09:58:47;;;;;;;;;;;;;;;19.23;47.09;102196.53;5021043;28;19927;-46
2023/05/20 10:01:12;;;;;;;;;;;;;;;19.34;47.17;102188.84;5024315;28;19982;-50
2023/05/20 10:03:38;;;;;;;;;;;;;;;19.38;46.71;102202.81;5024230;28;19929;-51
2023/05/20 10:06:04;;;;;;;;;;;;;;;19.39;46.20;102187.16;5022634;28;20382;-52
2023/05/20 10:08:48;;;;;;;;;;;;;;;19.49;45.98;102191.66;5021124;28;19968;-52
2023/05/20 10:11:19;;;;;;;;;;;;;;;19.23;47.26;102182.59;5022381;28;20335;-51
2023/05/20 10:14:02;;;;;;;;;;;;;;;19.32;47.54;102172.28;5023730;28;19928;-52
2023/05/20 10:16:30;;;;;;;;;;;;;;;19.54;47.75;102176.06;5021865;28;19920;-50
2023/05/20 10:19:20;;;;;;;;;;;;;;;19.78;47.24;102179.00;5023247;28;19932;-51
2023/05/20 10:21:55;;;;;;;;;;;;;;;19.91;45.80;102171.28;5024539;28;20279;-56
2023/05/20 10:24:27;;;;;;;;;;;;;;;19.86;45.95;102172.97;5023606;28;20015;-52
2023/05/20 10:26:54;;;;;;;;;;;;;;;19.91;45.90;102177.38;5023095;28;19921;-49
2023/05/20 10:29:21;;;;;;;;;;;;;;;20.20;45.22;102161.97;5023620;28;19924;-51
2023/05/20 10:31:50;;;;;;;;;;;;;;;20.24;44.90;102165.50;5017252;28;20408;-54
2023/05/20 10:34:16;;;;;;;;;;;;;;;20.21;45.00;102161.13;5023487;28;19932;-51
2023/05/20 10:36:44;;;;;;;;;;;;;;;20.22;45.11;102157.66;5020469;28;19917;-53
2023/05/20 10:39:15;;;;;;;;;;;;;;;20.36;44.04;102160.38;5023252;28;19921;-51
2023/05/20 10:41:40;;;;;;;;;;;;;;;20.14;44.85;102153.22;5017879;28;20094;-51
2023/05/20 10:44:05;;;;;;;;;;;;;;;20.05;45.55;102151.41;5016819;28;19921;-52
2023/05/20 10:46:31;;;;;;;;;;;;;;;20.09;45.55;102156.66;5026016;28;19921;-51
2023/05/20 10:48:57;;;;;;;;;;;;;;;20.13;45.23;102146.25;5020224;28;19928;-53
2023/05/20 10:51:22;;;;;;;;;;;;;;;20.26;44.68;102143.78;5016960;28;19921;-48
2023/05/20 10:53:51;;;;;;;;;;;;;;;20.14;45.28;102137.53;5019781;28;19929;-51
2023/05/20 10:56:20;;;;;;;;;;;;;;;20.12;45.05;102141.88;5019086;28;19917;-50
2023/05/20 10:58:46;;;;;;;;;;;;;;;20.05;44.76;102139.22;5022190;28;19917;-52
2023/05/20 11:01:12;;;;;;;;;;;;;;;20.12;45.16;102136.66;5019532;28;19928;-51
2023/05/20 11:03:39;;;;;;;;;;;;;;;20.21;44.97;102137.63;5020010;28;19925;-46
2023/05/20 11:06:11;;;;;;;;;;;;;;;20.16;45.16;102143.66;5021612;28;19925;-50
2023/05/20 11:08:37;;;;;;;;;;;;;;;20.17;46.80;102146.28;5018834;28;20131;-51
2023/05/20 11:11:02;;;;;;;;;;;;;;;20.04;45.22;102140.09;5020096;28;20244;-48
2023/05/20 11:13:27;;;;;;;;;;;;;;;19.98;45.34;102144.38;5021509;28;19920;-51
2023/05/20 11:15:53;;;;;;;;;;;;;;;19.82;45.57;102135.50;5021904;28;19925;-47
2023/05/20 11:18:18;;;;;;;;;;;;;;;19.63;46.21;102126.59;5017091;28;20133;-50
2023/05/20 11:20:45;;;;;;;;;;;;;;;19.58;45.89;102136.13;5022337;28;19975;-50
2023/05/20 11:23:12;;;;;;;;;;;;;;;19.46;46.53;102120.28;5023688;28;19925;-50
2023/05/20 11:25:37;;;;;;;;;;;;;;;19.68;46.57;102118.84;5020046;28;19980;-52
2023/05/20 11:28:02;;;;;;;;;;;;;;;19.80;45.02;102119.84;5019803;28;19960;-49
2023/05/20 11:30:29;;;;;;;;;;;;;;;19.73;45.65;102104.09;5020610;28;19929;-47
2023/05/20 11:32:58;;;;;;;;;;;;;;;19.97;44.60;102108.69;5018489;28;19925;-48
2023/05/20 11:35:24;;;;;;;;;;;;;;;19.87;44.96;102107.72;5022221;28;19916;-47
2023/05/20 11:38:03;;;;;;;;;;;;;;;19.73;45.70;102107.59;5017645;28;19921;-49
2023/05/20 11:40:29;;;;;;;;;;;;;;;19.83;45.52;102117.25;5019121;28;19995;-51
2023/05/20 11:42:55;;;;;;;;;;;;;;;19.74;45.87;102106.72;5022537;28;19944;-49
2023/05/20 11:45:21;;;;;;;;;;;;;;;19.96;45.03;102101.69;5019583;28;19925;-49
2023/05/20 11:47:46;;;;;;;;;;;;;;;19.97;45.53;102101.72;5021356;28;20401;-49
2023/05/20 11:50:19;;;;;;;;;;;;;;;19.96;45.76;102104.31;5023358;28;19927;-49
2023/05/20 11:52:44;;;;;;;;;;;;;;;20.08;44.75;102110.53;5016952;28;19944;-50
2023/05/20 11:55:13;;;;;;;;;;;;;;;19.99;45.39;102100.00;5022602;28;21358;-49
2023/05/20 11:57:38;;;;;;;;;;;;;;;20.10;44.67;102092.25;5016895;28;19979;-51
2023/05/20 12:00:06;;;;;;;;;;;;;;;20.16;45.02;102107.09;5021478;28;19925;-50
2023/05/20 12:02:31;;;;;;;;;;;;;;;20.24;44.51;102095.84;5017611;28;19976;-49
2023/05/20 12:04:57;;;;;;;;;;;;;;;20.24;44.82;102095.84;5019055;28;20383;-51
2023/05/20 12:07:22;;;;;;;;;;;;;;;20.21;44.45;102085.41;5019384;28;19964;-51
2023/05/20 12:09:47;;;;;;;;;;;;;;;20.16;44.55;102092.31;5023751;28;19936;-51
2023/05/20 12:12:12;;;;;;;;;;;;;;;20.09;44.97;102088.78;5018470;28;20372;-51
2023/05/20 12:14:38;;;;;;;;;;;;;;;20.09;45.37;102087.91;5020377;28;20352;-50
2023/05/20 12:17:03;;;;;;;;;;;;;;;20.10;45.75;102068.75;5013028;28;19918;-50
2023/05/20 12:19:28;;;;;;;;;;;;;;;20.32;45.57;102075.91;5019468;28;20352;-51
2023/05/20 12:21:54;;;;;;;;;;;;;;;20.52;45.90;102080.41;5020340;28;19929;-51
2023/05/20 12:24:19;;;;;;;;;;;;;;;20.74;43.64;102069.19;5022734;28;19921;-51
2023/05/20 12:26:44;;;;;;;;;;;;;;;20.55;44.47;102076.06;5019008;28;19960;-50
2023/05/20 12:29:09;;;;;;;;;;;;;;;20.40;44.52;102072.47;5023214;28;20286;-49